Time;durP1;ratioP1;P1;durP2;ratioP2;P2;SDS_P1;SDS_P2;PMS_P1;PMS_P2;Temp;Humidity;BMP_temperature;BMP_pressure;BME280_temperature;BME280_humidity;BME280_pressure;Samples;Min_cycle;Max_cycle;Signal;HPM_P1;HPM_P2
2021/05/07 00:02:38;;;;;;;15.10;10.50;;;;;;;7.79;84.28;100406.17;1752636;82;21215;-57
2021/05/07 00:05:54;;;;;;;15.05;10.25;;;;;;;7.76;84.36;100398.31;1752579;82;21195;-57
2021/05/07 00:08:55;;;;;;;15.28;10.82;;;;;;;7.74;84.42;100408.53;1752690;82;21290;-57
2021/05/07 00:12:04;;;;;;;14.90;10.35;;;;;;;7.69;84.40;100397.25;1752452;82;21278;-58
2021/05/07 00:15:09;;;;;;;12.70;9.58;;;;;;;7.63;84.24;100412.34;1752899;82;21211;-58
2021/05/07 00:18:14;;;;;;;16.65;9.98;;;;;;;7.58;84.25;100414.17;1752945;80;21230;-57
2021/05/07 00:21:20;;;;;;;12.25;9.38;;;;;;;7.54;84.29;100418.23;1752806;82;21751;-58
2021/05/07 00:24:26;;;;;;;11.38;9.25;;;;;;;7.50;84.44;100426.35;1752779;82;21270;-58
2021/05/07 00:27:33;;;;;;;11.30;8.73;;;;;;;7.50;84.49;100418.18;1752852;82;21393;-57
2021/05/07 00:30:39;;;;;;;10.70;8.20;;;;;;;7.45;84.10;100424.59;1752826;82;21196;-57
2021/05/07 00:33:45;;;;;;;11.28;9.03;;;;;;;7.40;83.85;100421.47;1752805;82;21334;-56
2021/05/07 00:36:50;;;;;;;12.58;8.85;;;;;;;7.37;83.89;100425.87;1752850;82;21224;-57
2021/05/07 00:39:55;;;;;;;14.25;8.80;;;;;;;7.38;83.94;100432.18;1752712;82;21214;-58
2021/05/07 00:43:02;;;;;;;20.52;8.80;;;;;;;7.37;83.89;100432.67;1752801;82;21548;-57
2021/05/07 00:46:08;;;;;;;20.85;8.60;;;;;;;7.31;83.62;100429.22;1751190;82;21243;-56
2021/05/07 00:49:13;;;;;;;27.87;8.23;;;;;;;7.26;83.38;100426.09;1752791;82;21195;-58
2021/05/07 00:52:19;;;;;;;26.52;8.83;;;;;;;7.19;83.19;100431.81;1752860;82;21234;-56
2021/05/07 00:55:25;;;;;;;25.50;8.65;;;;;;;7.16;83.22;100439.43;1752731;82;21234;-56
2021/05/07 00:58:34;;;;;;;38.15;9.08;;;;;;;7.20;83.57;100436.23;1752726;80;21247;-56
2021/05/07 01:01:40;;;;;;;43.33;10.18;;;;;;;7.27;83.71;100434.63;1752887;82;21203;-57
2021/05/07 01:04:47;;;;;;;31.57;9.70;;;;;;;7.34;83.88;100429.43;1752803;82;21642;-56
2021/05/07 01:07:53;;;;;;;28.23;8.60;;;;;;;7.41;84.00;100432.73;1752825;82;21235;-57
2021/05/07 01:11:02;;;;;;;31.95;8.10;;;;;;;7.48;83.98;100436.53;1735598;81;21322;-58
2021/05/07 01:14:09;;;;;;;26.17;7.05;;;;;;;7.54;84.00;100435.08;1752846;82;21219;-57
2021/05/07 01:17:15;;;;;;;33.92;6.87;;;;;;;7.59;83.94;100439.56;1752786;80;21278;-57
2021/05/07 01:20:36;;;;;;;26.15;6.40;;;;;;;7.64;83.88;100442.14;1752768;82;21258;-57
2021/05/07 01:23:41;;;;;;;28.87;5.58;;;;;;;7.69;83.82;100447.13;1752768;82;21231;-57
2021/05/07 01:26:49;;;;;;;12.10;5.50;;;;;;;7.70;83.75;100441.18;1752841;82;21282;-57
2021/05/07 01:29:54;;;;;;;11.33;5.35;;;;;;;7.71;83.71;100438.30;1752920;82;21211;-58
2021/05/07 01:32:59;;;;;;;9.90;5.30;;;;;;;7.72;83.64;100434.58;1752796;82;21752;-58
2021/05/07 01:36:09;;;;;;;14.83;4.85;;;;;;;7.73;83.59;100437.64;1752793;82;21180;-57
2021/05/07 01:39:15;;;;;;;8.58;4.87;;;;;;;7.74;83.52;100431.17;1752869;82;21212;-57
2021/05/07 01:42:21;;;;;;;18.00;4.67;;;;;;;7.73;83.37;100428.60;1752909;82;21302;-57
2021/05/07 01:45:30;;;;;;;14.75;4.67;;;;;;;7.69;83.21;100436.22;1752790;82;21282;-57
2021/05/07 01:48:37;;;;;;;14.07;4.92;;;;;;;7.67;83.15;100437.41;1750908;80;21211;-57
2021/05/07 01:51:44;;;;;;;9.50;4.53;;;;;;;7.60;83.02;100438.04;1752676;82;21224;-57
2021/05/07 01:54:49;;;;;;;10.63;4.75;;;;;;;7.55;82.99;100445.81;1752821;82;21266;-57
2021/05/07 01:57:57;;;;;;;10.72;4.40;;;;;;;7.48;82.90;100444.70;1752807;80;21227;-57
2021/05/07 02:01:06;;;;;;;17.17;4.37;;;;;;;7.45;82.91;100448.27;1752767;82;21223;-58
2021/05/07 02:04:13;;;;;;;22.52;4.75;;;;;;;7.41;82.85;100453.66;1752713;82;21811;-56
2021/05/07 02:07:19;;;;;;;11.22;4.78;;;;;;;7.38;82.76;100453.97;1731200;82;21350;-56
2021/05/07 02:10:29;;;;;;;15.80;4.97;;;;;;;7.34;82.61;100453.41;1752753;82;21223;-57
2021/05/07 02:13:34;;;;;;;26.12;5.50;;;;;;;7.31;82.50;100450.13;1752658;82;21614;-57
2021/05/07 02:16:40;;;;;;;21.37;5.10;;;;;;;7.26;82.39;100451.95;1752756;81;21330;-59
2021/05/07 02:19:45;;;;;;;33.30;5.30;;;;;;;7.22;82.37;100454.65;1752790;82;21205;-57
2021/05/07 02:22:51;;;;;;;21.25;4.97;;;;;;;7.18;82.37;100458.67;1752792;82;21238;-58
2021/05/07 02:25:59;;;;;;;12.35;5.30;;;;;;;7.13;82.36;100461.02;1752790;82;21231;-58
2021/05/07 02:29:06;;;;;;;19.52;5.95;;;;;;;7.10;82.43;100465.38;1752829;82;21219;-58
2021/05/07 02:32:12;;;;;;;19.05;5.25;;;;;;;7.09;82.45;100471.84;1752885;81;21219;-58
2021/05/07 02:35:19;;;;;;;15.48;5.85;;;;;;;7.09;82.49;100466.39;1752959;82;21188;-58
2021/05/07 02:38:26;;;;;;;38.98;6.05;;;;;;;7.10;82.49;100469.45;1752958;82;21736;-58
2021/05/07 02:41:32;;;;;;;33.98;5.22;;;;;;;7.13;82.51;100475.98;1752880;81;21263;-57
2021/05/07 02:44:37;;;;;;;41.18;5.83;;;;;;;7.16;82.50;100473.45;1752849;81;21736;-57
2021/05/07 02:47:43;;;;;;;44.27;5.62;;;;;;;7.19;82.41;100478.09;1750408;81;21208;-57
2021/05/07 02:50:48;;;;;;;31.73;5.25;;;;;;;7.20;82.44;100483.88;1746540;82;21226;-57
2021/05/07 02:53:54;;;;;;;15.90;5.47;;;;;;;7.25;82.41;100493.81;1747020;82;21275;-57
2021/05/07 02:57:00;;;;;;;24.65;5.78;;;;;;;7.29;82.43;100502.02;1746877;82;21222;-57
2021/05/07 03:00:07;;;;;;;19.90;6.58;;;;;;;7.33;82.39;100499.86;1747018;82;21218;-58
2021/05/07 03:03:13;;;;;;;31.23;6.37;;;;;;;7.37;82.29;100507.56;1746938;82;21605;-56
2021/05/07 03:06:19;;;;;;;14.38;5.45;;;;;;;7.42;82.22;100505.24;1747033;82;21311;-57
2021/05/07 03:09:26;;;;;;;37.48;6.87;;;;;;;7.46;82.15;100508.53;1747060;82;21239;-58
2021/05/07 03:12:32;;;;;;;18.42;6.15;;;;;;;7.48;82.13;100517.41;1746517;82;21204;-58
2021/05/07 03:15:37;;;;;;;24.02;6.15;;;;;;;7.54;82.33;100523.11;1746883;82;21211;-57
2021/05/07 03:18:42;;;;;;;17.25;6.08;;;;;;;7.63;82.31;100526.27;1746877;81;21283;-59
2021/05/07 03:21:48;;;;;;;28.90;5.20;;;;;;;7.71;82.18;100531.46;1746523;82;21287;-58
2021/05/07 03:24:54;;;;;;;35.85;5.50;;;;;;;7.78;82.07;100536.63;1746950;82;21236;-57
2021/05/07 03:27:59;;;;;;;30.30;5.42;;;;;;;7.82;81.77;100539.41;1747052;82;21302;-58
2021/05/07 03:31:04;;;;;;;20.00;5.37;;;;;;;7.88;81.75;100538.26;1746956;82;21243;-58
2021/05/07 03:34:12;;;;;;;14.95;4.53;;;;;;;7.93;81.49;100531.01;1746988;82;21338;-59
2021/05/07 03:37:18;;;;;;;46.53;4.62;;;;;;;7.97;81.38;100544.16;1746895;82;21669;-59
2021/05/07 03:40:23;;;;;;;20.62;4.85;;;;;;;8.02;81.17;100538.24;1747085;82;21250;-58
2021/05/07 03:43:28;;;;;;;34.98;4.70;;;;;;;8.08;81.08;100541.70;1747068;82;21243;-59
2021/05/07 03:46:34;;;;;;;30.30;4.28;;;;;;;8.12;80.92;100543.95;1747010;82;21290;-56
2021/05/07 03:49:40;;;;;;;13.13;4.12;;;;;;;8.16;80.74;100548.10;1746143;82;21235;-57
2021/05/07 03:52:46;;;;;;;15.68;4.55;;;;;;;8.22;80.78;100554.78;1747017;81;21223;-56
2021/05/07 03:55:53;;;;;;;14.85;3.75;;;;;;;8.30;80.75;100552.16;1746500;82;21223;-56
2021/05/07 03:58:58;;;;;;;13.48;4.35;;;;;;;8.39;80.75;100562.12;1746501;82;21246;-56
2021/05/07 04:02:04;;;;;;;13.30;3.95;;;;;;;8.50;80.74;100562.73;1746938;82;21260;-58
2021/05/07 04:05:11;;;;;;;5.22;3.80;;;;;;;8.63;80.45;100559.59;1746949;82;21255;-57
2021/05/07 04:08:20;;;;;;;19.52;3.87;;;;;;;8.69;80.11;100565.77;1746594;82;21247;-58
2021/05/07 04:14:45;;;;;;;12.58;3.05;;;;;;;8.85;80.05;100565.89;1746869;82;21266;-58
2021/05/07 04:17:51;;;;;;;10.23;3.85;;;;;;;8.94;80.10;100568.52;1747016;81;21247;-58
2021/05/07 04:20:57;;;;;;;8.15;3.50;;;;;;;9.01;80.14;100581.02;1746973;82;21791;-58
2021/05/07 04:24:04;;;;;;;11.00;3.85;;;;;;;9.08;80.05;100580.20;1746821;80;21270;-58
2021/05/07 04:27:10;;;;;;;23.87;4.10;;;;;;;9.14;80.02;100573.25;1746797;81;21282;-58
2021/05/07 04:30:19;;;;;;;10.50;3.92;;;;;;;9.22;80.16;100581.49;1746847;82;21220;-59
2021/05/07 04:33:24;;;;;;;21.85;4.40;;;;;;;9.31;80.22;100584.60;1746868;82;21314;-58
2021/05/07 04:36:30;;;;;;;6.03;4.33;;;;;;;9.41;80.28;100583.98;1746726;82;21204;-58
2021/05/07 04:39:35;;;;;;;7.47;4.60;;;;;;;9.48;80.32;100589.13;1749953;80;21336;-58
2021/05/07 04:42:42;;;;;;;15.88;4.70;;;;;;;9.53;80.46;100586.76;1776565;80;21358;-58
2021/05/07 04:45:47;;;;;;;9.88;4.53;;;;;;;9.60;80.66;100586.96;1775743;81;21886;-58
2021/05/07 04:48:54;;;;;;;8.10;4.80;;;;;;;9.69;80.76;100586.83;1775640;81;21224;-58
2021/05/07 04:52:02;;;;;;;6.22;5.20;;;;;;;9.81;80.77;100581.92;1779560;80;21235;-58
2021/05/07 04:55:10;;;;;;;5.95;5.15;;;;;;;9.89;80.68;100581.95;1782481;80;21231;-57
2021/05/07 04:58:15;;;;;;;7.65;6.67;;;;;;;9.94;80.81;100580.41;1782896;80;21262;-58
2021/05/07 05:01:21;;;;;;;6.83;6.12;;;;;;;9.99;80.95;100577.20;1752652;82;21219;-60
2021/05/07 05:04:26;;;;;;;8.48;6.95;;;;;;;10.04;81.20;100572.92;1755281;80;21326;-62
2021/05/07 05:07:31;;;;;;;12.60;10.63;;;;;;;10.12;81.46;100577.08;1778411;79;21259;-59
2021/05/07 05:10:36;;;;;;;8.73;6.83;;;;;;;10.17;81.70;100577.43;1752774;82;21914;-58
2021/05/07 05:13:41;;;;;;;8.55;7.17;;;;;;;10.25;81.93;100581.55;1752686;82;22063;-59
2021/05/07 05:16:47;;;;;;;8.93;8.00;;;;;;;10.32;82.10;100586.67;1752503;80;21882;-59
2021/05/07 05:19:51;;;;;;;10.45;7.92;;;;;;;10.43;82.40;100595.91;1756798;80;21752;-60
2021/05/07 05:22:56;;;;;;;7.17;6.47;;;;;;;10.54;82.63;100589.27;1779845;80;21741;-59
2021/05/07 05:26:02;;;;;;;7.53;6.58;;;;;;;10.67;82.72;100591.50;1780391;80;21741;-59
2021/05/07 05:29:09;;;;;;;7.10;6.40;;;;;;;10.78;82.67;100597.99;1752885;80;21355;-59
2021/05/07 05:32:15;;;;;;;7.30;6.45;;;;;;;10.89;82.63;100590.80;1752590;80;21385;-60
2021/05/07 05:35:22;;;;;;;8.98;7.08;;;;;;;11.00;82.55;100593.17;1683389;85;21789;-60
2021/05/07 05:38:30;;;;;;;10.80;6.37;;;;;;;11.13;82.45;100602.56;1753366;82;21357;-62
2021/05/07 05:41:36;;;;;;;7.58;5.90;;;;;;;11.25;82.47;100595.70;1708125;83;21358;-52
2021/05/07 05:44:43;;;;;;;8.35;6.00;;;;;;;11.39;82.56;100595.48;1772990;81;21350;-53
2021/05/07 05:47:49;;;;;;;8.48;6.50;;;;;;;11.52;82.26;100599.89;1771584;79;21872;-54
2021/05/07 05:50:59;;;;;;;10.00;6.58;;;;;;;11.64;82.02;100604.85;1740380;82;21244;-53
2021/05/07 05:54:06;;;;;;;8.73;6.10;;;;;;;11.74;81.82;100606.87;1766256;81;21777;-52
2021/05/07 05:57:19;;;;;;;10.10;8.70;;;;;;;11.85;81.39;100609.73;1771830;80;21334;-59
2021/05/07 06:00:33;;;;;;;7.00;6.03;;;;;;;11.95;81.00;100609.87;1779636;79;21828;-55
2021/05/07 06:03:51;;;;;;;7.30;6.50;;;;;;;12.09;80.60;100609.62;1779190;80;21349;-55
2021/05/07 06:06:55;;;;;;;9.58;6.40;;;;;;;12.21;79.90;100617.77;1779347;80;21331;-54
2021/05/07 06:10:00;;;;;;;7.78;6.58;;;;;;;12.32;79.11;100620.64;1770052;80;21359;-55
2021/05/07 06:13:09;;;;;;;7.40;6.22;;;;;;;12.42;79.08;100620.73;1776349;80;21322;-54
2021/05/07 06:16:16;;;;;;;8.55;6.50;;;;;;;12.50;78.49;100611.06;1768129;79;21733;-55
2021/05/07 06:19:25;;;;;;;11.43;6.50;;;;;;;12.59;77.92;100613.24;1772759;79;21335;-55
2021/05/07 06:22:31;;;;;;;7.30;6.58;;;;;;;12.64;77.08;100602.02;1773877;79;21208;-55
2021/05/07 06:25:36;;;;;;;8.40;7.10;;;;;;;12.72;76.45;100599.22;1778984;80;21347;-54
2021/05/07 06:28:44;;;;;;;7.97;7.10;;;;;;;12.83;76.25;100598.77;1778637;80;21945;-54
2021/05/07 06:31:50;;;;;;;8.75;7.08;;;;;;;12.93;75.56;100596.63;1776599;79;22009;-56
2021/05/07 06:34:56;;;;;;;8.53;6.58;;;;;;;13.01;75.01;100592.47;1785746;79;21215;-58
2021/05/07 06:38:03;;;;;;;8.43;6.35;;;;;;;13.10;74.26;100599.59;1779667;79;21204;-58
2021/05/07 06:41:12;;;;;;;8.13;6.28;;;;;;;13.19;73.23;100599.83;1778701;79;21822;-59
2021/05/07 06:44:19;;;;;;;16.35;6.70;;;;;;;13.26;72.32;100599.43;1750163;82;21373;-59
2021/05/07 06:47:24;;;;;;;12.07;5.92;;;;;;;13.36;71.24;100604.66;1770905;80;21216;-59
2021/05/07 06:50:31;;;;;;;7.80;3.58;;;;;;;13.44;68.74;100611.44;1778340;79;21817;-60
2021/05/07 06:53:42;;;;;;;18.23;6.35;;;;;;;13.52;65.58;100611.35;1773996;80;21172;-60
2021/05/07 06:56:49;;;;;;;14.43;5.40;;;;;;;13.62;64.54;100613.82;1775713;80;21262;-59
2021/05/07 06:59:58;;;;;;;10.32;4.92;;;;;;;13.71;63.60;100616.80;1767091;80;21732;-59
2021/05/07 07:03:04;;;;;;;6.67;3.65;;;;;;;13.79;62.88;100618.08;1777069;79;21220;-59
2021/05/07 07:06:10;;;;;;;7.28;4.20;;;;;;;13.87;62.43;100620.22;1777178;80;21314;-58
2021/05/07 07:09:22;;;;;;;7.15;3.35;;;;;;;13.99;62.19;100626.06;1774334;80;21168;-53
2021/05/07 07:12:28;;;;;;;7.70;3.33;;;;;;;14.09;60.46;100636.27;1777382;79;21365;-60
2021/05/07 07:15:34;;;;;;;20.08;5.35;;;;;;;14.17;57.93;100640.29;1776485;80;21172;-56
2021/05/07 07:18:41;;;;;;;6.67;3.58;;;;;;;14.24;57.85;100642.11;1777489;79;21326;-55
2021/05/07 07:21:48;;;;;;;5.25;3.80;;;;;;;14.32;57.49;100643.88;1769660;79;21437;-56
2021/05/07 07:24:54;;;;;;;8.45;3.47;;;;;;;14.39;57.44;100639.33;1777050;80;21315;-56
2021/05/07 07:28:00;;;;;;;6.35;3.70;;;;;;;14.51;57.61;100648.77;1772500;79;21271;-53
2021/05/07 07:31:06;;;;;;;9.10;3.77;;;;;;;14.63;57.78;100654.98;1774559;80;21904;-55
2021/05/07 07:34:13;;;;;;;11.90;3.25;;;;;;;14.77;56.79;100648.56;1777256;80;21264;-56
2021/05/07 07:37:18;;;;;;;9.50;3.15;;;;;;;14.88;55.15;100643.90;1776686;80;21208;-55
2021/05/07 07:40:24;;;;;;;4.92;2.92;;;;;;;14.98;55.21;100648.53;1776348;80;21196;-55
2021/05/07 07:43:29;;;;;;;6.70;2.70;;;;;;;15.11;53.46;100650.55;1774611;80;22044;-55
2021/05/07 07:46:38;;;;;;;3.35;2.27;;;;;;;15.21;51.85;100642.80;1776212;80;21366;-55
2021/05/07 07:49:45;;;;;;;5.05;2.90;;;;;;;15.32;51.15;100640.87;1777529;80;21732;-57
2021/05/07 07:52:51;;;;;;;8.65;2.70;;;;;;;15.42;50.63;100645.56;1777571;80;21478;-56
2021/05/07 07:56:00;;;;;;;4.53;2.22;;;;;;;15.50;50.97;100646.80;1781838;78;21394;-57
2021/05/07 07:59:06;;;;;;;4.20;2.20;;;;;;;15.64;50.60;100638.06;1782708;80;21287;-57
2021/05/07 08:02:13;;;;;;;3.02;1.80;;;;;;;15.78;49.29;100637.95;1782811;80;21797;-54
2021/05/07 08:05:18;;;;;;;5.00;1.98;;;;;;;15.94;47.58;100637.63;1752166;82;21357;-55
2021/05/07 08:08:24;;;;;;;3.45;1.80;;;;;;;16.03;45.75;100635.01;1751623;81;21239;-57
2021/05/07 08:11:29;;;;;;;5.50;1.98;;;;;;;16.10;44.43;100630.38;1752122;81;21327;-56
2021/05/07 08:14:35;;;;;;;4.08;1.90;;;;;;;16.19;43.40;100633.28;1752347;82;21203;-55
2021/05/07 08:17:42;;;;;;;3.83;2.08;;;;;;;16.27;43.42;100633.11;1752165;80;21238;-54
2021/05/07 08:20:48;;;;;;;3.98;1.70;;;;;;;16.31;41.95;100643.22;1774449;80;21184;-54
2021/05/07 08:23:54;;;;;;;5.20;2.27;;;;;;;16.29;40.81;100628.75;1783055;79;21310;-56
2021/05/07 08:27:04;;;;;;;2.72;1.80;;;;;;;16.30;40.40;100631.31;1766505;80;21176;-55
2021/05/07 08:30:07;;;;;;;5.30;1.55;;;;;;;16.35;39.35;100628.78;1751888;82;21760;-56
2021/05/07 08:33:12;;;;;;;4.80;1.57;;;;;;;16.41;38.27;100634.85;1777213;80;22213;-56
2021/05/07 08:36:17;;;;;;;2.45;1.70;;;;;;;16.43;37.68;100623.08;1755512;80;21207;-55
2021/05/07 08:39:22;;;;;;;3.90;1.65;;;;;;;16.47;37.40;100623.55;1750429;81;21216;-54
2021/05/07 08:42:28;;;;;;;2.40;1.72;;;;;;;16.55;37.80;100626.13;1751029;82;21243;-54
2021/05/07 08:45:34;;;;;;;4.30;2.00;;;;;;;16.63;36.59;100617.64;1750531;80;21859;-56
2021/05/07 08:48:42;;;;;;;3.02;1.67;;;;;;;16.72;37.05;100618.28;1732353;81;21418;-54
2021/05/07 08:51:50;;;;;;;3.47;1.42;;;;;;;16.80;35.79;100625.00;1746017;81;21204;-59
2021/05/07 08:54:56;;;;;;;4.45;1.67;;;;;;;16.86;35.17;100615.85;1770314;80;21370;-61
2021/05/07 08:58:03;;;;;;;2.58;1.60;;;;;;;16.98;35.39;100617.77;1774232;80;21749;-59
2021/05/07 09:01:08;;;;;;;5.87;2.52;;;;;;;17.16;34.65;100608.33;1749987;80;21303;-53
2021/05/07 09:04:19;;;;;;;4.12;1.80;;;;;;;17.34;36.26;100617.38;1697396;84;21231;-50
2021/05/07 09:07:25;;;;;;;5.20;2.15;;;;;;;17.53;35.16;100625.70;1775442;80;21207;-57
2021/05/07 09:10:40;;;;;;;2.77;1.60;;;;;;;17.68;34.65;100632.36;1777311;80;21219;-58
2021/05/07 09:13:46;;;;;;;7.17;2.65;;;;;;;17.88;35.89;100629.04;1766027;80;21244;-57
2021/05/07 09:17:03;;;;;;;4.95;1.90;;;;;;;18.04;35.21;100620.78;1748186;80;21228;-56
2021/05/07 09:20:21;;;;;;;3.05;1.80;;;;;;;18.17;34.47;100628.50;1734850;82;21223;-55
2021/05/07 09:23:26;;;;;;;4.45;1.52;;;;;;;18.30;33.19;100630.39;1734803;81;21204;-56
2021/05/07 09:26:31;;;;;;;2.85;1.42;;;;;;;18.28;32.26;100639.45;1734949;82;21698;-56
2021/05/07 09:29:39;;;;;;;2.52;1.60;;;;;;;18.27;33.05;100630.28;1739774;81;21228;-56
2021/05/07 09:32:43;;;;;;;2.47;1.42;;;;;;;18.36;33.16;100638.65;1745743;82;21220;-55
2021/05/07 09:35:49;;;;;;;2.75;1.25;;;;;;;18.49;32.67;100639.19;1759252;80;21188;-55
2021/05/07 09:38:56;;;;;;;2.42;1.12;;;;;;;18.60;31.67;100631.56;1745312;82;21290;-55
2021/05/07 09:42:03;;;;;;;4.00;1.40;;;;;;;18.75;31.36;100631.56;1757021;80;21260;-55
2021/05/07 09:45:08;;;;;;;6.40;1.30;;;;;;;18.92;31.36;100631.86;1774746;81;21188;-56
2021/05/07 09:48:34;;;;;;;2.20;1.20;;;;;;;19.07;30.30;100626.87;1775393;81;21224;-58
2021/05/07 09:51:50;;;;;;;4.75;1.60;;;;;;;19.18;30.80;100628.39;1762915;81;21184;-57
2021/05/07 09:54:58;;;;;;;7.40;2.55;;;;;;;19.33;31.42;100620.28;1775372;81;21211;-56
2021/05/07 09:58:05;;;;;;;4.70;1.40;;;;;;;19.50;31.45;100626.43;1769686;79;21695;-55
2021/05/07 10:01:11;;;;;;;4.42;1.50;;;;;;;19.62;30.45;100624.59;1784017;79;21192;-56
2021/05/07 10:04:16;;;;;;;3.33;1.45;;;;;;;19.66;30.26;100633.33;1746982;81;21338;-50
2021/05/07 10:07:21;;;;;;;2.95;1.52;;;;;;;19.66;30.56;100621.69;1741875;80;22052;-53
2021/05/07 10:10:34;;;;;;;3.08;1.60;;;;;;;19.70;31.17;100619.27;1752676;80;21786;-52
2021/05/07 10:13:39;;;;;;;3.12;1.45;;;;;;;19.74;30.84;100614.98;1742489;81;22034;-53
2021/05/07 10:16:46;;;;;;;3.67;1.70;;;;;;;19.75;30.85;100618.91;1752355;80;21247;-53
2021/05/07 10:19:53;;;;;;;3.55;1.37;;;;;;;19.70;30.35;100615.97;1757661;80;21184;-53
2021/05/07 10:23:00;;;;;;;4.47;1.50;;;;;;;19.71;30.56;100614.88;1755040;80;21219;-53
2021/05/07 10:26:15;;;;;;;3.10;1.85;;;;;;;19.84;31.50;100618.91;1779841;80;21835;-54
2021/05/07 10:29:34;;;;;;;3.12;1.50;;;;;;;20.00;31.54;100616.06;1771300;81;21335;-53
2021/05/07 10:32:43;;;;;;;3.62;1.47;;;;;;;20.21;32.40;100619.27;1770308;81;21390;-52
2021/05/07 10:35:48;;;;;;;5.12;1.50;;;;;;;20.48;31.74;100608.12;1774419;81;21169;-52
2021/05/07 10:38:57;;;;;;;2.45;1.27;;;;;;;20.65;31.96;100605.52;1782877;80;21800;-53
2021/05/07 10:42:08;;;;;;;3.42;1.60;;;;;;;20.74;30.44;100601.31;1771521;81;21330;-51
2021/05/07 10:45:16;;;;;;;3.40;1.40;;;;;;;20.71;29.26;100599.00;1783008;80;21389;-51
2021/05/07 10:48:32;;;;;;;3.85;1.70;;;;;;;20.75;29.70;100598.85;1771478;81;21971;-47
2021/05/07 10:51:38;;;;;;;4.00;1.42;;;;;;;20.79;29.58;100600.92;1771917;81;21335;-50
2021/05/07 10:54:57;;;;;;;6.05;1.42;;;;;;;20.93;30.06;100593.20;1772986;80;21367;-48
2021/05/07 10:58:06;;;;;;;4.03;1.82;;;;;;;21.05;29.85;100594.13;1736134;81;21406;-52
2021/05/07 11:01:33;;;;;;;5.20;1.87;;;;;;;21.13;28.70;100598.50;1726508;83;21280;-52
2021/05/07 11:04:51;;;;;;;5.65;1.40;;;;;;;21.11;28.73;100590.38;1763358;80;21354;-54
2021/05/07 11:07:59;;;;;;;3.70;1.30;;;;;;;21.24;29.49;100576.25;1745679;82;21283;-53
2021/05/07 11:11:06;;;;;;;4.50;1.50;;;;;;;21.29;31.03;100580.56;1747439;82;21191;-53
2021/05/07 11:14:19;;;;;;;3.80;1.80;;;;;;;21.41;29.88;100581.40;1747761;82;21266;-53
2021/05/07 11:17:24;;;;;;;2.22;1.32;;;;;;;21.49;29.15;100577.40;1746013;82;21231;-53
2021/05/07 11:20:48;;;;;;;2.45;1.70;;;;;;;21.61;28.53;100569.34;1777886;79;21712;-52
2021/05/07 11:23:53;;;;;;;4.12;1.90;;;;;;;21.70;28.59;100579.58;1778872;80;21228;-53
2021/05/07 11:26:59;;;;;;;2.85;1.70;;;;;;;21.78;28.19;100570.34;1777876;80;21208;-52
2021/05/07 11:30:16;;;;;;;3.87;1.72;;;;;;;21.88;27.46;100576.13;1779130;80;21370;-51
2021/05/07 11:33:23;;;;;;;5.22;1.57;;;;;;;21.91;27.27;100568.67;1779289;80;21232;-52
2021/05/07 11:36:29;;;;;;;3.25;1.57;;;;;;;22.00;27.52;100559.39;1778365;80;21204;-53
2021/05/07 11:39:36;;;;;;;3.75;1.40;;;;;;;22.01;27.58;100559.14;1779032;79;21333;-53
2021/05/07 11:42:44;;;;;;;5.55;1.80;;;;;;;22.04;27.53;100554.47;1777668;79;21760;-54
2021/05/07 11:45:51;;;;;;;3.67;1.92;;;;;;;22.14;26.66;100549.12;1771016;79;21208;-52
2021/05/07 11:48:58;;;;;;;2.70;1.62;;;;;;;22.18;28.08;100546.12;1777818;79;21565;-52
2021/05/07 11:52:04;;;;;;;5.08;1.80;;;;;;;22.30;29.18;100552.20;1751890;79;21279;-53
2021/05/07 11:55:14;;;;;;;4.22;1.87;;;;;;;22.40;26.77;100548.23;1771003;79;21215;-53
2021/05/07 11:58:19;;;;;;;7.90;2.62;;;;;;;22.53;26.39;100550.77;1765564;79;21342;-54
2021/05/07 12:01:27;;;;;;;4.97;1.95;;;;;;;22.65;27.43;100544.03;1744158;80;21217;-54
2021/05/07 12:04:33;;;;;;;4.92;1.85;;;;;;;22.53;26.96;100545.18;1733134;82;21198;-54
2021/05/07 12:07:42;;;;;;;3.47;1.90;;;;;;;22.59;26.27;100533.02;1743588;82;21232;-53
2021/05/07 12:10:51;;;;;;;2.45;1.42;;;;;;;22.67;26.25;100532.07;1743256;82;21189;-54
2021/05/07 12:13:57;;;;;;;4.97;1.60;;;;;;;22.67;24.97;100515.86;1717264;83;21723;-54
2021/05/07 12:17:08;;;;;;;3.58;1.50;;;;;;;22.62;24.68;100511.58;1717403;83;21251;-53
2021/05/07 12:20:16;;;;;;;2.75;1.37;;;;;;;22.50;24.89;100506.02;1716584;83;21188;-54
2021/05/07 12:23:22;;;;;;;5.40;2.00;;;;;;;22.51;25.00;100507.73;1728573;81;21334;-53
2021/05/07 12:26:30;;;;;;;2.87;1.25;;;;;;;22.58;26.60;100504.25;1752435;81;21319;-53
2021/05/07 12:29:43;;;;;;;6.35;1.98;;;;;;;22.76;27.68;100497.59;1753609;81;21462;-53
2021/05/07 12:32:50;;;;;;;7.10;2.17;;;;;;;23.06;27.13;100484.14;1747255;80;21818;-53
2021/05/07 12:35:59;;;;;;;3.87;1.50;;;;;;;23.13;26.61;100475.06;1748006;82;21348;-53
2021/05/07 12:39:08;;;;;;;1.85;1.07;;;;;;;22.99;26.72;100469.53;1748233;81;21458;-55
2021/05/07 12:42:12;;;;;;;3.12;1.10;;;;;;;22.83;26.16;100455.88;1730856;80;21583;-54
2021/05/07 12:45:20;;;;;;;5.60;1.27;;;;;;;22.79;26.75;100449.63;1747639;82;21730;-51
2021/05/07 12:48:25;;;;;;;3.80;1.60;;;;;;;22.83;26.16;100452.22;1741143;80;21263;-54
2021/05/07 12:51:30;;;;;;;3.87;1.10;;;;;;;23.02;25.80;100439.70;1744634;82;21197;-55
2021/05/07 12:54:37;;;;;;;6.62;1.45;;;;;;;23.28;25.88;100437.59;1748249;82;21192;-54
2021/05/07 12:57:42;;;;;;;4.80;1.30;;;;;;;23.30;25.46;100428.41;1748188;80;21404;-53
2021/05/07 13:00:47;;;;;;;5.12;1.30;;;;;;;23.30;25.66;100425.08;1764573;80;21783;-54
2021/05/07 13:03:53;;;;;;;2.45;1.30;;;;;;;23.21;26.25;100421.55;1780570;79;21285;-53
2021/05/07 13:07:00;;;;;;;5.85;1.30;;;;;;;23.14;25.32;100420.33;1742528;81;21354;-54
2021/05/07 13:10:05;;;;;;;4.55;1.42;;;;;;;23.08;25.51;100419.11;1734678;82;21267;-53
2021/05/07 13:13:11;;;;;;;4.35;1.47;;;;;;;22.75;25.58;100417.75;1744974;81;21259;-52
2021/05/07 13:16:17;;;;;;;5.17;1.95;;;;;;;22.45;25.97;100421.39;1743055;81;21312;-52
2021/05/07 13:19:23;;;;;;;2.22;1.15;;;;;;;22.26;27.15;100418.53;1747096;82;21708;-53
2021/05/07 13:22:28;;;;;;;4.50;1.50;;;;;;;22.16;26.63;100411.67;1757947;79;21389;-52
2021/05/07 13:25:34;;;;;;;4.60;1.32;;;;;;;22.05;26.25;100409.79;1718539;83;21370;-52
2021/05/07 13:28:40;;;;;;;1.87;0.98;;;;;;;21.86;26.09;100411.09;1717814;82;21227;-53
2021/05/07 13:31:49;;;;;;;5.10;1.20;;;;;;;21.69;26.42;100405.95;1705829;83;21216;-58
2021/05/07 13:34:54;;;;;;;1.98;1.10;;;;;;;21.51;27.50;100404.75;1705764;83;21717;-56
2021/05/07 13:38:00;;;;;;;3.20;1.20;;;;;;;21.35;27.54;100409.69;1737113;81;21205;-60
2021/05/07 13:41:06;;;;;;;3.80;1.32;;;;;;;21.15;27.81;100398.64;1745893;81;21168;-58
2021/05/07 13:44:11;;;;;;;3.12;1.20;;;;;;;21.02;28.42;100395.56;1747499;82;21231;-61
2021/05/07 13:47:17;;;;;;;3.27;1.27;;;;;;;20.99;28.54;100396.06;1707123;82;21210;-59
2021/05/07 13:50:24;;;;;;;2.25;1.30;;;;;;;20.93;28.21;100394.19;1718783;83;21312;-59
2021/05/07 13:53:32;;;;;;;3.35;1.02;;;;;;;20.88;28.00;100378.79;1718584;82;21209;-59
2021/05/07 13:56:37;;;;;;;7.55;1.67;;;;;;;20.92;28.41;100377.73;1719520;83;21794;-59
2021/05/07 13:59:42;;;;;;;6.35;1.10;;;;;;;20.99;29.17;100374.33;1719981;83;21336;-59
2021/05/07 14:02:49;;;;;;;3.90;1.40;;;;;;;21.09;29.14;100371.21;1740011;82;21240;-59
2021/05/07 14:05:57;;;;;;;7.05;1.45;;;;;;;21.05;27.59;100360.28;1775098;79;21403;-58
2021/05/07 14:09:04;;;;;;;2.87;1.40;;;;;;;20.92;28.00;100366.60;1775596;80;21201;-58
2021/05/07 14:12:11;;;;;;;1.98;1.20;;;;;;;20.82;28.01;100369.99;1739771;82;21883;-59
2021/05/07 14:15:17;;;;;;;3.45;1.30;;;;;;;20.75;28.81;100366.50;1774143;80;21378;-58
2021/05/07 14:18:22;;;;;;;1.80;0.93;;;;;;;20.63;28.91;100366.50;1762830;79;21413;-59
2021/05/07 14:21:30;;;;;;;2.55;1.40;;;;;;;20.52;28.48;100372.05;1778416;80;21219;-59
2021/05/07 14:24:37;;;;;;;4.78;1.47;;;;;;;20.38;28.91;100363.63;1777092;80;21881;-59
2021/05/07 14:27:44;;;;;;;2.30;1.22;;;;;;;20.20;29.13;100366.52;1778572;80;21231;-59
2021/05/07 14:30:48;;;;;;;9.53;1.25;;;;;;;19.99;29.18;100358.69;1778691;80;21331;-59
2021/05/07 14:33:53;;;;;;;3.00;1.00;;;;;;;19.87;29.56;100353.66;1778600;80;21860;-59